<?xml version='1.0' encoding='UTF-8'?><gpx version="1.1" creator="JPX - https://github.com/jenetics/jpx" xmlns="http://www.topografix.com/GPX/1/1"><trk><trkseg><trkpt lat="45.78939925883504" lon="-1.1858978122483808"><ele>14.0</ele><time>2026-04-28T17:56:24.002Z</time></trkpt><trkpt lat="45.78929092273655" lon="-1.1861827969562133"><ele>19.0</ele><time>2026-04-28T17:56:25.002Z</time></trkpt><trkpt lat="45.7891829638237" lon="-1.1864682845782362"><ele>17.5</ele><time>2026-04-28T17:56:26.002Z</time></trkpt><trkpt lat="45.78907578757561" lon="-1.1867548994667447"><ele>16.0</ele><time>2026-04-28T17:56:27.002Z</time></trkpt><trkpt lat="45.78898011898834" lon="-1.1870456172025692"><ele>15.666666666666666</ele><time>2026-04-28T17:56:28.001Z</time></trkpt><trkpt lat="45.78891140531167" lon="-1.1873543572991927"><ele>15.333333333333332</ele><time>2026-04-28T17:56:29.001Z</time></trkpt><trkpt lat="45.788867565102194" lon="-1.1876611155935914"><ele>15.0</ele><time>2026-04-28T17:56:30.001Z</time></trkpt><trkpt lat="45.78883752349316" lon="-1.1879769756661673"><ele>14.5</ele><time>2026-04-28T17:56:31.001Z</time></trkpt><trkpt lat="45.78884402392304" lon="-1.1883157242973472"><ele>14.0</ele><time>2026-04-28T17:56:32.001Z</time></trkpt><trkpt lat="45.788838002885115" lon="-1.1887803432376443"><ele>13.0</ele><time>2026-04-28T17:56:33.001Z</time></trkpt><trkpt lat="45.7888229493424" lon="-1.1892375010659608"><ele>12.0</ele><time>2026-04-28T17:56:34.001Z</time></trkpt><trkpt lat="45.788808565410385" lon="-1.18968889406758"><ele>12.0</ele><time>2026-04-28T17:56:35.001Z</time></trkpt><trkpt lat="45.78880872716057" lon="-1.190198268713909"><ele>12.0</ele><time>2026-04-28T17:56:36.001Z</time></trkpt><trkpt lat="45.78879454200622" lon="-1.1907248288743932"><ele>12.0</ele><time>2026-04-28T17:56:37.001Z</time></trkpt><trkpt lat="45.7887829235494" lon="-1.1912631363937243"><ele>12.0</ele><time>2026-04-28T17:56:38.001Z</time></trkpt><trkpt lat="45.78878068163259" lon="-1.1917576575683042"><ele>11.0</ele><time>2026-04-28T17:56:39.001Z</time></trkpt><trkpt lat="45.788762610255304" lon="-1.1921893641322356"><ele>10.0</ele><time>2026-04-28T17:56:40.001Z</time></trkpt><trkpt lat="45.7887336063751" lon="-1.1925693870673433"><ele>10.0</ele><time>2026-04-28T17:56:41.001Z</time></trkpt><trkpt lat="45.78866404888559" lon="-1.1929655829959591"><ele>10.0</ele><time>2026-04-28T17:56:42Z</time></trkpt><trkpt lat="45.78853766024448" lon="-1.193348672794556"><ele>12.0</ele><time>2026-04-28T17:56:43Z</time></trkpt><trkpt lat="45.788341411056656" lon="-1.1936808166689648"><ele>14.0</ele><time>2026-04-28T17:56:44Z</time></trkpt><trkpt lat="45.78816336119107" lon="-1.1940495929914774"><ele>14.5</ele><time>2026-04-28T17:56:45Z</time></trkpt><trkpt lat="45.787957177224186" lon="-1.1944495169449814"><ele>15.0</ele><time>2026-04-28T17:56:46Z</time></trkpt><trkpt lat="45.78780577677519" lon="-1.1948696557679486"><ele>17.0</ele><time>2026-04-28T17:56:47Z</time></trkpt><trkpt lat="45.787636565769205" lon="-1.1952190594308414"><ele>19.0</ele><time>2026-04-28T17:56:48Z</time></trkpt><trkpt lat="45.787489270027855" lon="-1.1955338702416463"><ele>20.5</ele><time>2026-04-28T17:56:49Z</time></trkpt><trkpt lat="45.78742697075627" lon="-1.1958833172896446"><ele>22.0</ele><time>2026-04-28T17:56:50Z</time></trkpt><trkpt lat="45.7874144886618" lon="-1.1962314228019513"><ele>23.5</ele><time>2026-04-28T17:56:51Z</time></trkpt><trkpt lat="45.787459823640766" lon="-1.1965588739461857"><ele>25.0</ele><time>2026-04-28T17:56:52Z</time></trkpt><trkpt lat="45.78753441097114" lon="-1.1969273582893707"><ele>25.0</ele><time>2026-04-28T17:56:53Z</time></trkpt><trkpt lat="45.787621329981164" lon="-1.197313879423396"><ele>25.0</ele><time>2026-04-28T17:56:54Z</time></trkpt><trkpt lat="45.787697397456476" lon="-1.19770753777705"><ele>23.0</ele><time>2026-04-28T17:56:55Z</time></trkpt><trkpt lat="45.78774054117207" lon="-1.1981372490694127"><ele>21.0</ele><time>2026-04-28T17:56:56Z</time></trkpt><trkpt lat="45.787787342959234" lon="-1.1985862304507893"><ele>19.5</ele><time>2026-04-28T17:56:57Z</time></trkpt><trkpt lat="45.78783171788755" lon="-1.199019150071903"><ele>18.0</ele><time>2026-04-28T17:56:58Z</time></trkpt><trkpt lat="45.787845627032866" lon="-1.1994078265574006"><ele>18.0</ele><time>2026-04-28T17:56:59Z</time></trkpt><trkpt lat="45.78777682102744" lon="-1.1998142596124823"><ele>18.0</ele><time>2026-04-28T17:57:00Z</time></trkpt><trkpt lat="45.78763540270692" lon="-1.2002109243445802"><ele>19.0</ele><time>2026-04-28T17:57:01Z</time></trkpt><trkpt lat="45.7874694159315" lon="-1.2005626023581542"><ele>20.0</ele><time>2026-04-28T17:57:02Z</time></trkpt><trkpt lat="45.787405110722524" lon="-1.2008841637428305"><ele>20.0</ele><time>2026-04-28T17:57:03Z</time></trkpt><trkpt lat="45.7873899598652" lon="-1.2012131812673075"><ele>20.0</ele><time>2026-04-28T17:57:04Z</time></trkpt><trkpt lat="45.78743191171699" lon="-1.2015695468782812"><ele>20.0</ele><time>2026-04-28T17:57:05Z</time></trkpt><trkpt lat="45.78752869498464" lon="-1.2019014646740627"><ele>20.0</ele><time>2026-04-28T17:57:06Z</time></trkpt><trkpt lat="45.78768667191568" lon="-1.202253307549611"><ele>19.0</ele><time>2026-04-28T17:57:07Z</time></trkpt><trkpt lat="45.78787750419352" lon="-1.2026271995687243"><ele>18.0</ele><time>2026-04-28T17:57:08Z</time></trkpt><trkpt lat="45.788078533232536" lon="-1.2030330437772914"><ele>15.5</ele><time>2026-04-28T17:57:09Z</time></trkpt><trkpt lat="45.78828786450436" lon="-1.2034189173763858"><ele>13.0</ele><time>2026-04-28T17:57:10Z</time></trkpt><trkpt lat="45.7885030221203" lon="-1.2038223783502129"><ele>12.0</ele><time>2026-04-28T17:57:11Z</time></trkpt><trkpt lat="45.78872692375647" lon="-1.2042246709174302"><ele>11.0</ele><time>2026-04-28T17:57:12Z</time></trkpt><trkpt lat="45.78893441442651" lon="-1.2046977692834158"><ele>11.0</ele><time>2026-04-28T17:57:13Z</time></trkpt><trkpt lat="45.789152172314424" lon="-1.2051294729495563"><ele>11.0</ele><time>2026-04-28T17:57:14Z</time></trkpt><trkpt lat="45.78935700126265" lon="-1.205519330476325"><ele>12.0</ele><time>2026-04-28T17:57:15Z</time></trkpt><trkpt lat="45.78953484034699" lon="-1.2058875100588198"><ele>13.0</ele><time>2026-04-28T17:57:16Z</time></trkpt><trkpt lat="45.789683837182345" lon="-1.206278092452022"><ele>13.5</ele><time>2026-04-28T17:57:16.999Z</time></trkpt><trkpt lat="45.78985396459403" lon="-1.2066287184321167"><ele>14.0</ele><time>2026-04-28T17:57:17.999Z</time></trkpt><trkpt lat="45.789840912286614" lon="-1.2071567532816838"><ele>13.0</ele><time>2026-04-28T17:57:18.999Z</time></trkpt><trkpt lat="45.789884329396486" lon="-1.207652623984863"><ele>12.0</ele><time>2026-04-28T17:57:19.999Z</time></trkpt><trkpt lat="45.78994613800065" lon="-1.2081510382769944"><ele>12.0</ele><time>2026-04-28T17:57:20.999Z</time></trkpt><trkpt lat="45.790006321161435" lon="-1.2086746970905609"><ele>12.0</ele><time>2026-04-28T17:57:21.999Z</time></trkpt><trkpt lat="45.79004643408103" lon="-1.209177493346652"><ele>11.0</ele><time>2026-04-28T17:57:22.999Z</time></trkpt><trkpt lat="45.79003389493836" lon="-1.2096854013216904"><ele>10.0</ele><time>2026-04-28T17:57:23.999Z</time></trkpt><trkpt lat="45.7899797013763" lon="-1.2102213480550428"><ele>10.0</ele><time>2026-04-28T17:57:24.999Z</time></trkpt><trkpt lat="45.78990184617084" lon="-1.210770081202579"><ele>10.0</ele><time>2026-04-28T17:57:25.999Z</time></trkpt><trkpt lat="45.789803045693894" lon="-1.2113071313810704"><ele>10.0</ele><time>2026-04-28T17:57:26.999Z</time></trkpt><trkpt lat="45.789660184399125" lon="-1.2118365296064457"><ele>10.0</ele><time>2026-04-28T17:57:27.999Z</time></trkpt><trkpt lat="45.789472942674735" lon="-1.2123619672005068"><ele>8.5</ele><time>2026-04-28T17:57:28.999Z</time></trkpt><trkpt lat="45.78926985195358" lon="-1.212881944308958"><ele>7.0</ele><time>2026-04-28T17:57:29.999Z</time></trkpt><trkpt lat="45.78908062652685" lon="-1.2134219105108688"><ele>7.0</ele><time>2026-04-28T17:57:30.999Z</time></trkpt><trkpt lat="45.788895440686304" lon="-1.213947338425125"><ele>7.0</ele><time>2026-04-28T17:57:31.999Z</time></trkpt><trkpt lat="45.78873898830843" lon="-1.2143860607143613"><ele>8.5</ele><time>2026-04-28T17:57:32.999Z</time></trkpt><trkpt lat="45.7885965756583" lon="-1.2147386966726816"><ele>10.0</ele><time>2026-04-28T17:57:33.999Z</time></trkpt><trkpt lat="45.78845675996849" lon="-1.2150101850185777"><ele>10.0</ele><time>2026-04-28T17:57:34.999Z</time></trkpt><trkpt lat="45.788312846698034" lon="-1.2152110211848226"><ele>10.0</ele><time>2026-04-28T17:57:35.999Z</time></trkpt><trkpt lat="45.788108678427776" lon="-1.2153363410398934"><ele>10.0</ele><time>2026-04-28T17:57:36.999Z</time></trkpt><trkpt lat="45.787840980474726" lon="-1.2154180664822132"><ele>10.0</ele><time>2026-04-28T17:57:37.999Z</time></trkpt><trkpt lat="45.787538740448355" lon="-1.215459348683104"><ele>10.0</ele><time>2026-04-28T17:57:38.999Z</time></trkpt><trkpt lat="45.78720082323178" lon="-1.2155052121246306"><ele>10.0</ele><time>2026-04-28T17:57:39.999Z</time></trkpt><trkpt lat="45.786845062460664" lon="-1.2155657684778092"><ele>10.0</ele><time>2026-04-28T17:57:40.999Z</time></trkpt><trkpt lat="45.78647287321564" lon="-1.2156289950994938"><ele>10.0</ele><time>2026-04-28T17:57:41.999Z</time></trkpt><trkpt lat="45.78610564380426" lon="-1.2156916500583304"><ele>10.0</ele><time>2026-04-28T17:57:42.999Z</time></trkpt><trkpt lat="45.78572226964836" lon="-1.2157613939835672"><ele>9.5</ele><time>2026-04-28T17:57:43.999Z</time></trkpt><trkpt lat="45.78532528238072" lon="-1.2158392243031244"><ele>9.0</ele><time>2026-04-28T17:57:44.999Z</time></trkpt><trkpt lat="45.7849350920134" lon="-1.2159119186660856"><ele>8.5</ele><time>2026-04-28T17:57:45.999Z</time></trkpt><trkpt lat="45.78453796793483" lon="-1.2159995138393083"><ele>8.0</ele><time>2026-04-28T17:57:46.999Z</time></trkpt><trkpt lat="45.784138041795096" lon="-1.2161164728444165"><ele>9.0</ele><time>2026-04-28T17:57:47.999Z</time></trkpt><trkpt lat="45.783742701226075" lon="-1.2162820591594221"><ele>10.0</ele><time>2026-04-28T17:57:48.999Z</time></trkpt><trkpt lat="45.78334507990812" lon="-1.2164664844936273"><ele>9.5</ele><time>2026-04-28T17:57:49.999Z</time></trkpt><trkpt lat="45.78294683942373" lon="-1.2166585195648487"><ele>9.0</ele><time>2026-04-28T17:57:50.999Z</time></trkpt><trkpt lat="45.78253106119455" lon="-1.2168348212509288"><ele>9.0</ele><time>2026-04-28T17:57:51.999Z</time></trkpt><trkpt lat="45.782098835753445" lon="-1.2170083700901626"><ele>9.0</ele><time>2026-04-28T17:57:52.999Z</time></trkpt><trkpt lat="45.781663133125875" lon="-1.217180459872341"><ele>7.0</ele><time>2026-04-28T17:57:53.999Z</time></trkpt><trkpt lat="45.78121697932103" lon="-1.2173272391591459"><ele>9.0</ele><time>2026-04-28T17:57:54.999Z</time></trkpt><trkpt lat="45.78076369701935" lon="-1.217445459833835"><ele>9.0</ele><time>2026-04-28T17:57:55.999Z</time></trkpt><trkpt lat="45.780302945679715" lon="-1.2175603922039628"><ele>11.0</ele><time>2026-04-28T17:57:56.999Z</time></trkpt><trkpt lat="45.779840127008065" lon="-1.2176810748107474"><ele>11.0</ele><time>2026-04-28T17:57:57.999Z</time></trkpt><trkpt lat="45.77937987624783" lon="-1.2178252501417828"><ele>12.0</ele><time>2026-04-28T17:57:58.999Z</time></trkpt><trkpt lat="45.778916828319865" lon="-1.2179437866199816"><ele>12.0</ele><time>2026-04-28T17:57:59.999Z</time></trkpt><trkpt lat="45.778446086586094" lon="-1.218030211512308"><ele>12.0</ele><time>2026-04-28T17:58:00.999Z</time></trkpt><trkpt lat="45.777970193838286" lon="-1.2180774129693142"><ele>11.0</ele><time>2026-04-28T17:58:01.999Z</time></trkpt><trkpt lat="45.77749399407027" lon="-1.2180986655243031"><ele>11.0</ele><time>2026-04-28T17:58:02.999Z</time></trkpt><trkpt lat="45.77701281215069" lon="-1.2181237311094102"><ele>16.0</ele><time>2026-04-28T17:58:03.999Z</time></trkpt><trkpt lat="45.776527988530596" lon="-1.2181653560831165"><ele>16.0</ele><time>2026-04-28T17:58:04.999Z</time></trkpt><trkpt lat="45.77605387134015" lon="-1.218213327066094"><ele>19.5</ele><time>2026-04-28T17:58:05.999Z</time></trkpt><trkpt lat="45.77562290586952" lon="-1.2182566637615058"><ele>23.0</ele><time>2026-04-28T17:58:06.999Z</time></trkpt><trkpt lat="45.77525743419191" lon="-1.218290104008545"><ele>27.5</ele><time>2026-04-28T17:58:07.999Z</time></trkpt><trkpt lat="45.7749679817148" lon="-1.2183124735790134"><ele>32.0</ele><time>2026-04-28T17:58:08.999Z</time></trkpt><trkpt lat="45.77473578166186" lon="-1.2183057313560117"><ele>32.0</ele><time>2026-04-28T17:58:09.999Z</time></trkpt><trkpt lat="45.77451635398547" lon="-1.2182171536912259"><ele>32.0</ele><time>2026-04-28T17:58:10.999Z</time></trkpt><trkpt lat="45.77427278393558" lon="-1.2180333396839451"><ele>35.5</ele><time>2026-04-28T17:58:11.999Z</time></trkpt><trkpt lat="45.77402615108757" lon="-1.2177603904469037"><ele>39.0</ele><time>2026-04-28T17:58:12.999Z</time></trkpt><trkpt lat="45.77378759715908" lon="-1.2174421266982562"><ele>40.5</ele><time>2026-04-28T17:58:13.999Z</time></trkpt><trkpt lat="45.77353336646012" lon="-1.217119680997018"><ele>42.0</ele><time>2026-04-28T17:58:14.999Z</time></trkpt><trkpt lat="45.77325883637947" lon="-1.2168436471383932"><ele>42.0</ele><time>2026-04-28T17:58:15.999Z</time></trkpt><trkpt lat="45.77294898337542" lon="-1.2166294775610071"><ele>42.0</ele><time>2026-04-28T17:58:16.999Z</time></trkpt><trkpt lat="45.772602904694374" lon="-1.2164836981474425"><ele>42.0</ele><time>2026-04-28T17:58:17.999Z</time></trkpt><trkpt lat="45.77224018110972" lon="-1.2163499520139571"><ele>42.0</ele><time>2026-04-28T17:58:18.999Z</time></trkpt><trkpt lat="45.77188983880132" lon="-1.216203933327913"><ele>41.5</ele><time>2026-04-28T17:58:19.999Z</time></trkpt><trkpt lat="45.771573090311634" lon="-1.216020028701401"><ele>41.0</ele><time>2026-04-28T17:58:20.999Z</time></trkpt><trkpt lat="45.77125533774543" lon="-1.215768863683543"><ele>40.5</ele><time>2026-04-28T17:58:21.999Z</time></trkpt><trkpt lat="45.77093673667506" lon="-1.2154602050817485"><ele>40.0</ele><time>2026-04-28T17:58:22.999Z</time></trkpt><trkpt lat="45.77063631424884" lon="-1.2152087206561122"><ele>40.0</ele><time>2026-04-28T17:58:23.999Z</time></trkpt><trkpt lat="45.7703509428941" lon="-1.2150137655512878"><ele>40.0</ele><time>2026-04-28T17:58:24.999Z</time></trkpt><trkpt lat="45.77003826674679" lon="-1.2148953899882247"><ele>39.5</ele><time>2026-04-28T17:58:26Z</time></trkpt><trkpt lat="45.76969207637297" lon="-1.214850976485826"><ele>39.0</ele><time>2026-04-28T17:58:27Z</time></trkpt><trkpt lat="45.769332920332886" lon="-1.2148211056318363"><ele>45.0</ele><time>2026-04-28T17:58:28Z</time></trkpt><trkpt lat="45.76902602561806" lon="-1.214771031953917"><ele>51.0</ele><time>2026-04-28T17:58:29Z</time></trkpt><trkpt lat="45.76876662281409" lon="-1.214711166372251"><ele>51.0</ele><time>2026-04-28T17:58:30Z</time></trkpt><trkpt lat="45.76854731662018" lon="-1.214584824237645"><ele>51.0</ele><time>2026-04-28T17:58:31Z</time></trkpt><trkpt lat="45.768361582196945" lon="-1.2143787287308985"><ele>52.5</ele><time>2026-04-28T17:58:32Z</time></trkpt><trkpt lat="45.768197829316804" lon="-1.214068071437485"><ele>54.0</ele><time>2026-04-28T17:58:33Z</time></trkpt><trkpt lat="45.76805276472129" lon="-1.2136814995213678"><ele>55.0</ele><time>2026-04-28T17:58:34Z</time></trkpt><trkpt lat="45.7678558706414" lon="-1.2132858738380008"><ele>56.0</ele><time>2026-04-28T17:58:35Z</time></trkpt><trkpt lat="45.767622731415415" lon="-1.2129367027357434"><ele>50.5</ele><time>2026-04-28T17:58:36Z</time></trkpt><trkpt lat="45.76737679307096" lon="-1.21263477568103"><ele>45.0</ele><time>2026-04-28T17:58:37Z</time></trkpt><trkpt lat="45.76717847153168" lon="-1.212462694517284"><ele>45.0</ele><time>2026-04-28T17:58:38Z</time></trkpt><trkpt lat="45.76696697718133" lon="-1.2123651885637081"><ele>45.0</ele><time>2026-04-28T17:58:39Z</time></trkpt><trkpt lat="45.76668701663874" lon="-1.2123129107573152"><ele>40.0</ele><time>2026-04-28T17:58:40Z</time></trkpt><trkpt lat="45.766342927045656" lon="-1.2123310203320639"><ele>35.0</ele><time>2026-04-28T17:58:41Z</time></trkpt><trkpt lat="45.76598125259323" lon="-1.2123578579356957"><ele>34.0</ele><time>2026-04-28T17:58:42Z</time></trkpt><trkpt lat="45.765628350781625" lon="-1.2123713972477959"><ele>33.0</ele><time>2026-04-28T17:58:43Z</time></trkpt><trkpt lat="45.76533114995151" lon="-1.212452447782932"><ele>34.5</ele><time>2026-04-28T17:58:44Z</time></trkpt><trkpt lat="45.76507341918455" lon="-1.2125725891050767"><ele>36.0</ele><time>2026-04-28T17:58:45Z</time></trkpt><trkpt lat="45.76479710615919" lon="-1.2127827662040727"><ele>36.0</ele><time>2026-04-28T17:58:46Z</time></trkpt><trkpt lat="45.76449920095875" lon="-1.2130412688486245"><ele>36.0</ele><time>2026-04-28T17:58:47Z</time></trkpt><trkpt lat="45.76418400933031" lon="-1.2133171539086922"><ele>34.5</ele><time>2026-04-28T17:58:48Z</time></trkpt><trkpt lat="45.76387358345951" lon="-1.213595269122883"><ele>33.0</ele><time>2026-04-28T17:58:49Z</time></trkpt><trkpt lat="45.76361112201737" lon="-1.2138689007978911"><ele>31.0</ele><time>2026-04-28T17:58:50Z</time></trkpt><trkpt lat="45.763382574781346" lon="-1.2142152493120677"><ele>29.0</ele><time>2026-04-28T17:58:51Z</time></trkpt><trkpt lat="45.763163386768284" lon="-1.2146385563434652"><ele>28.0</ele><time>2026-04-28T17:58:52Z</time></trkpt><trkpt lat="45.76295994652768" lon="-1.2150396136398156"><ele>27.0</ele><time>2026-04-28T17:58:53Z</time></trkpt><trkpt lat="45.76275887846559" lon="-1.2153645479287278"><ele>25.5</ele><time>2026-04-28T17:58:54Z</time></trkpt><trkpt lat="45.76251808852055" lon="-1.2156686872798348"><ele>24.0</ele><time>2026-04-28T17:58:55Z</time></trkpt><trkpt lat="45.76221124825273" lon="-1.2159256521564177"><ele>23.5</ele><time>2026-04-28T17:58:56Z</time></trkpt><trkpt lat="45.76186348793278" lon="-1.216161242082761"><ele>23.0</ele><time>2026-04-28T17:58:57Z</time></trkpt><trkpt lat="45.761517866654785" lon="-1.2163998921054777"><ele>21.0</ele><time>2026-04-28T17:58:58Z</time></trkpt><trkpt lat="45.761170433907616" lon="-1.2166352733251278"><ele>19.0</ele><time>2026-04-28T17:58:59Z</time></trkpt><trkpt lat="45.760821450644784" lon="-1.2168093062092185"><ele>18.5</ele><time>2026-04-28T17:59:00Z</time></trkpt><trkpt lat="45.76045987670237" lon="-1.2168831748492268"><ele>18.0</ele><time>2026-04-28T17:59:01Z</time></trkpt><trkpt lat="45.76007235825542" lon="-1.2168722413311261"><ele>18.0</ele><time>2026-04-28T17:59:02Z</time></trkpt><trkpt lat="45.759693390921115" lon="-1.2168653959994107"><ele>18.0</ele><time>2026-04-28T17:59:03Z</time></trkpt><trkpt lat="45.75936384855472" lon="-1.2169162578656416"><ele>18.0</ele><time>2026-04-28T17:59:03.999Z</time></trkpt><trkpt lat="45.75907257241573" lon="-1.2169975544230702"><ele>18.0</ele><time>2026-04-28T17:59:04.999Z</time></trkpt><trkpt lat="45.75880293204941" lon="-1.217153313284419"><ele>19.5</ele><time>2026-04-28T17:59:05.999Z</time></trkpt><trkpt lat="45.758551260823594" lon="-1.2173637420417005"><ele>21.0</ele><time>2026-04-28T17:59:06.999Z</time></trkpt><trkpt lat="45.75831431489396" lon="-1.2176474082236"><ele>18.0</ele><time>2026-04-28T17:59:07.999Z</time></trkpt><trkpt lat="45.758079638760485" lon="-1.2179956777101149"><ele>15.0</ele><time>2026-04-28T17:59:08.999Z</time></trkpt><trkpt lat="45.75783528987174" lon="-1.2183635954629184"><ele>15.0</ele><time>2026-04-28T17:59:09.999Z</time></trkpt><trkpt lat="45.75757853999354" lon="-1.2186961492391126"><ele>15.0</ele><time>2026-04-28T17:59:10.999Z</time></trkpt><trkpt lat="45.75736112392012" lon="-1.218983406887192"><ele>14.5</ele><time>2026-04-28T17:59:11.999Z</time></trkpt><trkpt lat="45.75714100137582" lon="-1.2191660509176188"><ele>14.0</ele><time>2026-04-28T17:59:12.999Z</time></trkpt><trkpt lat="45.75690787549101" lon="-1.219259602797451"><ele>19.5</ele><time>2026-04-28T17:59:13.999Z</time></trkpt><trkpt lat="45.756672085479885" lon="-1.2192820252463143"><ele>25.0</ele><time>2026-04-28T17:59:14.999Z</time></trkpt><trkpt lat="45.75642774415113" lon="-1.2192384406391534"><ele>25.0</ele><time>2026-04-28T17:59:15.999Z</time></trkpt><trkpt lat="45.7561587726051" lon="-1.2190881266190625"><ele>25.0</ele><time>2026-04-28T17:59:16.999Z</time></trkpt><trkpt lat="45.75588473515526" lon="-1.2188781898698615"><ele>22.0</ele><time>2026-04-28T17:59:17.999Z</time></trkpt><trkpt lat="45.755596435580145" lon="-1.2186111946791005"><ele>19.0</ele><time>2026-04-28T17:59:18.999Z</time></trkpt><trkpt lat="45.755296369576236" lon="-1.2183402427184993"><ele>18.0</ele><time>2026-04-28T17:59:19.999Z</time></trkpt><trkpt lat="45.754984375634294" lon="-1.2180751551570903"><ele>17.0</ele><time>2026-04-28T17:59:20.999Z</time></trkpt><trkpt lat="45.75465129900322" lon="-1.21779999419572"><ele>19.5</ele><time>2026-04-28T17:59:21.999Z</time></trkpt><trkpt lat="45.75432469141552" lon="-1.2175474564844126"><ele>22.0</ele><time>2026-04-28T17:59:22.999Z</time></trkpt><trkpt lat="45.754038056428705" lon="-1.2173447264339303"><ele>20.5</ele><time>2026-04-28T17:59:23.999Z</time></trkpt><trkpt lat="45.75373982355617" lon="-1.2172021066201049"><ele>19.0</ele><time>2026-04-28T17:59:24.999Z</time></trkpt><trkpt lat="45.753412978961464" lon="-1.2170735604565226"><ele>19.0</ele><time>2026-04-28T17:59:25.999Z</time></trkpt><trkpt lat="45.75306437221439" lon="-1.2169435696189164"><ele>19.0</ele><time>2026-04-28T17:59:26.999Z</time></trkpt><trkpt lat="45.75270809727459" lon="-1.2167867313661793"><ele>19.5</ele><time>2026-04-28T17:59:27.999Z</time></trkpt><trkpt lat="45.752330222018095" lon="-1.2166500599834156"><ele>20.0</ele><time>2026-04-28T17:59:28.999Z</time></trkpt><trkpt lat="45.75193960673916" lon="-1.2165045672192816"><ele>19.5</ele><time>2026-04-28T17:59:29.999Z</time></trkpt><trkpt lat="45.75154728904038" lon="-1.2163533037655772"><ele>19.0</ele><time>2026-04-28T17:59:30.999Z</time></trkpt><trkpt lat="45.75113724330368" lon="-1.2162022800732477"><ele>18.5</ele><time>2026-04-28T17:59:31.999Z</time></trkpt><trkpt lat="45.75072532982243" lon="-1.2160517355332066"><ele>18.0</ele><time>2026-04-28T17:59:32.999Z</time></trkpt><trkpt lat="45.750300431177166" lon="-1.2158976193364075"><ele>16.5</ele><time>2026-04-28T17:59:33.999Z</time></trkpt><trkpt lat="45.74989044669664" lon="-1.2157403233804098"><ele>15.0</ele><time>2026-04-28T17:59:34.999Z</time></trkpt><trkpt lat="45.74952466966666" lon="-1.2155983145486877"><ele>14.0</ele><time>2026-04-28T17:59:35.999Z</time></trkpt><trkpt lat="45.749163483225956" lon="-1.215492465185071"><ele>13.0</ele><time>2026-04-28T17:59:36.999Z</time></trkpt><trkpt lat="45.74877633713183" lon="-1.215508942897438"><ele>13.0</ele><time>2026-04-28T17:59:37.999Z</time></trkpt><trkpt lat="45.74836651273495" lon="-1.2155216203959365"><ele>13.0</ele><time>2026-04-28T17:59:38.999Z</time></trkpt><trkpt lat="45.74794942204851" lon="-1.2155303017812573"><ele>14.0</ele><time>2026-04-28T17:59:39.999Z</time></trkpt><trkpt lat="45.7475252529723" lon="-1.2155492001387278"><ele>15.0</ele><time>2026-04-28T17:59:40.999Z</time></trkpt><trkpt lat="45.74708886147819" lon="-1.21555429874163"><ele>15.0</ele><time>2026-04-28T17:59:41.999Z</time></trkpt><trkpt lat="45.7466554349606" lon="-1.2155793938073711"><ele>15.0</ele><time>2026-04-28T17:59:42.999Z</time></trkpt><trkpt lat="45.74624098777172" lon="-1.2156160906858486"><ele>15.0</ele><time>2026-04-28T17:59:43.999Z</time></trkpt><trkpt lat="45.74585782061975" lon="-1.2156162487457836"><ele>15.0</ele><time>2026-04-28T17:59:44.999Z</time></trkpt><trkpt lat="45.745502330179356" lon="-1.2155980992137718"><ele>15.0</ele><time>2026-04-28T17:59:45.999Z</time></trkpt><trkpt lat="45.74515095300729" lon="-1.2154858863367142"><ele>15.0</ele><time>2026-04-28T17:59:46.999Z</time></trkpt><trkpt lat="45.744798828778485" lon="-1.2152788922000175"><ele>15.0</ele><time>2026-04-28T17:59:47.999Z</time></trkpt><trkpt lat="45.7444658630814" lon="-1.215034998491686"><ele>15.0</ele><time>2026-04-28T17:59:48.999Z</time></trkpt><trkpt lat="45.74415120770939" lon="-1.2149185165745067"><ele>15.0</ele><time>2026-04-28T17:59:49.999Z</time></trkpt><trkpt lat="45.743892620708536" lon="-1.2148896399980724"><ele>15.0</ele><time>2026-04-28T17:59:50.999Z</time></trkpt><trkpt lat="45.74361922629952" lon="-1.2149157386846121"><ele>14.5</ele><time>2026-04-28T17:59:51.999Z</time></trkpt><trkpt lat="45.743299891642174" lon="-1.2149808995075122"><ele>14.0</ele><time>2026-04-28T17:59:52.999Z</time></trkpt><trkpt lat="45.742964628866616" lon="-1.2150365740405773"><ele>13.5</ele><time>2026-04-28T17:59:53.999Z</time></trkpt><trkpt lat="45.74261947068364" lon="-1.2151235647582985"><ele>13.0</ele><time>2026-04-28T17:59:54.999Z</time></trkpt><trkpt lat="45.74225499005629" lon="-1.2151983940981415"><ele>13.0</ele><time>2026-04-28T17:59:55.999Z</time></trkpt><trkpt lat="45.741889784221506" lon="-1.2152853507816503"><ele>13.0</ele><time>2026-04-28T17:59:56.999Z</time></trkpt><trkpt lat="45.741510766147385" lon="-1.215375339030592"><ele>13.0</ele><time>2026-04-28T17:59:57.999Z</time></trkpt><trkpt lat="45.741116531120866" lon="-1.215464700480855"><ele>13.0</ele><time>2026-04-28T17:59:58.999Z</time></trkpt><trkpt lat="45.74071396323193" lon="-1.215558047475931"><ele>12.0</ele><time>2026-04-28T17:59:59.999Z</time></trkpt><trkpt lat="45.74030703210718" lon="-1.2156577518483642"><ele>11.0</ele><time>2026-04-28T18:00:00.999Z</time></trkpt><trkpt lat="45.739887764650135" lon="-1.2157620129638425"><ele>13.0</ele><time>2026-04-28T18:00:01.999Z</time></trkpt><trkpt lat="45.7394605318311" lon="-1.2158590014372959"><ele>15.0</ele><time>2026-04-28T18:00:02.999Z</time></trkpt><trkpt lat="45.739023637267096" lon="-1.2159510954565913"><ele>16.0</ele><time>2026-04-28T18:00:03.999Z</time></trkpt><trkpt lat="45.73857784743962" lon="-1.2160441718489026"><ele>15.0</ele><time>2026-04-28T18:00:04.999Z</time></trkpt><trkpt lat="45.73813294562532" lon="-1.2161446829150493"><ele>15.5</ele><time>2026-04-28T18:00:05.999Z</time></trkpt><trkpt lat="45.737706093580144" lon="-1.216263162565895"><ele>16.0</ele><time>2026-04-28T18:00:06.999Z</time></trkpt><trkpt lat="45.7373582560668" lon="-1.2164099811659792"><ele>16.0</ele><time>2026-04-28T18:00:07.999Z</time></trkpt><trkpt lat="45.73703716282335" lon="-1.216628598069126"><ele>16.0</ele><time>2026-04-28T18:00:08.999Z</time></trkpt><trkpt lat="45.73671719383481" lon="-1.2169088485940573"><ele>16.5</ele><time>2026-04-28T18:00:09.999Z</time></trkpt><trkpt lat="45.73644381858422" lon="-1.2172019732891508"><ele>17.0</ele><time>2026-04-28T18:00:10.999Z</time></trkpt><trkpt lat="45.736189736520394" lon="-1.2174980721706392"><ele>15.5</ele><time>2026-04-28T18:00:11.999Z</time></trkpt><trkpt lat="45.73595934644453" lon="-1.2178714008882694"><ele>14.0</ele><time>2026-04-28T18:00:12.999Z</time></trkpt><trkpt lat="45.73573542253479" lon="-1.2182984554939145"><ele>13.0</ele><time>2026-04-28T18:00:13.999Z</time></trkpt><trkpt lat="45.73551337755194" lon="-1.2186629767312873"><ele>12.0</ele><time>2026-04-28T18:00:14.999Z</time></trkpt><trkpt lat="45.73530157383249" lon="-1.2189337834475593"><ele>15.0</ele><time>2026-04-28T18:00:15.999Z</time></trkpt><trkpt lat="45.735027101875694" lon="-1.2191821417954984"><ele>18.0</ele><time>2026-04-28T18:00:16.999Z</time></trkpt><trkpt lat="45.73470553566207" lon="-1.2193803163653034"><ele>17.0</ele><time>2026-04-28T18:00:17.999Z</time></trkpt><trkpt lat="45.73437285431249" lon="-1.2195412481402248"><ele>16.0</ele><time>2026-04-28T18:00:18.999Z</time></trkpt><trkpt lat="45.73402358611169" lon="-1.2197075444563086"><ele>17.5</ele><time>2026-04-28T18:00:19.999Z</time></trkpt><trkpt lat="45.733673095443756" lon="-1.2199240211344873"><ele>19.0</ele><time>2026-04-28T18:00:20.999Z</time></trkpt><trkpt lat="45.73330236067492" lon="-1.2201085432973662"><ele>19.0</ele><time>2026-04-28T18:00:21.999Z</time></trkpt><trkpt lat="45.73293059311414" lon="-1.220320550471781"><ele>19.0</ele><time>2026-04-28T18:00:22.999Z</time></trkpt><trkpt lat="45.73256853089348" lon="-1.2205309470278534"><ele>20.0</ele><time>2026-04-28T18:00:23.999Z</time></trkpt><trkpt lat="45.732237950630044" lon="-1.2207096345165005"><ele>21.0</ele><time>2026-04-28T18:00:24.998Z</time></trkpt><trkpt lat="45.731903662792014" lon="-1.2208977976310802"><ele>19.5</ele><time>2026-04-28T18:00:25.998Z</time></trkpt><trkpt lat="45.7315755575382" lon="-1.2211639890881463"><ele>18.0</ele><time>2026-04-28T18:00:26.998Z</time></trkpt><trkpt lat="45.73123978458449" lon="-1.2214541122243125"><ele>16.0</ele><time>2026-04-28T18:00:27.998Z</time></trkpt><trkpt lat="45.73088860678544" lon="-1.221744375206501"><ele>14.0</ele><time>2026-04-28T18:00:28.998Z</time></trkpt><trkpt lat="45.730537631247444" lon="-1.2220628763949286"><ele>12.0</ele><time>2026-04-28T18:00:29.998Z</time></trkpt><trkpt lat="45.73017799084075" lon="-1.2223749308327578"><ele>10.0</ele><time>2026-04-28T18:00:30.998Z</time></trkpt><trkpt lat="45.72981233328949" lon="-1.2226828695307073"><ele>10.0</ele><time>2026-04-28T18:00:32Z</time></trkpt><trkpt lat="45.729447291066954" lon="-1.2229985131787418"><ele>10.0</ele><time>2026-04-28T18:00:33Z</time></trkpt><trkpt lat="45.72909452033484" lon="-1.223325363049447"><ele>10.0</ele><time>2026-04-28T18:00:34Z</time></trkpt><trkpt lat="45.728781871538295" lon="-1.2236157741821319"><ele>10.0</ele><time>2026-04-28T18:00:35Z</time></trkpt><trkpt lat="45.72849657022035" lon="-1.223849881830797"><ele>10.5</ele><time>2026-04-28T18:00:36Z</time></trkpt><trkpt lat="45.72823166635067" lon="-1.22406081728617"><ele>11.0</ele><time>2026-04-28T18:00:37Z</time></trkpt><trkpt lat="45.72796629236195" lon="-1.2242335293510238"><ele>11.0</ele><time>2026-04-28T18:00:38Z</time></trkpt><trkpt lat="45.72767796776656" lon="-1.2243429716408964"><ele>11.0</ele><time>2026-04-28T18:00:39Z</time></trkpt><trkpt lat="45.72734717252792" lon="-1.2244026186796482"><ele>11.0</ele><time>2026-04-28T18:00:40Z</time></trkpt><trkpt lat="45.727003084659685" lon="-1.2244539223974718"><ele>11.0</ele><time>2026-04-28T18:00:41Z</time></trkpt><trkpt lat="45.726652484795245" lon="-1.2245608861191222"><ele>11.0</ele><time>2026-04-28T18:00:42Z</time></trkpt><trkpt lat="45.726329617848215" lon="-1.2247643546847962"><ele>11.0</ele><time>2026-04-28T18:00:43Z</time></trkpt><trkpt lat="45.725972755771565" lon="-1.2249788867489009"><ele>12.0</ele><time>2026-04-28T18:00:44Z</time></trkpt><trkpt lat="45.725648265653064" lon="-1.2251267325233524"><ele>13.0</ele><time>2026-04-28T18:00:45Z</time></trkpt><trkpt lat="45.72534899201231" lon="-1.225226950059313"><ele>13.0</ele><time>2026-04-28T18:00:46Z</time></trkpt><trkpt lat="45.72508264569284" lon="-1.225336244947456"><ele>13.0</ele><time>2026-04-28T18:00:47Z</time></trkpt><trkpt lat="45.72483326893689" lon="-1.2254531815791452"><ele>13.0</ele><time>2026-04-28T18:00:48Z</time></trkpt><trkpt lat="45.72458072178797" lon="-1.2256397535385546"><ele>13.0</ele><time>2026-04-28T18:00:49Z</time></trkpt><trkpt lat="45.72431424054476" lon="-1.225900126654813"><ele>12.0</ele><time>2026-04-28T18:00:50Z</time></trkpt><trkpt lat="45.724033032549094" lon="-1.2261770759665453"><ele>11.0</ele><time>2026-04-28T18:00:51Z</time></trkpt><trkpt lat="45.72374017781612" lon="-1.2264670275785128"><ele>10.5</ele><time>2026-04-28T18:00:52Z</time></trkpt><trkpt lat="45.72343113421253" lon="-1.226750942652491"><ele>10.0</ele><time>2026-04-28T18:00:53Z</time></trkpt><trkpt lat="45.723121764973946" lon="-1.227055073541375"><ele>10.5</ele><time>2026-04-28T18:00:54Z</time></trkpt><trkpt lat="45.722830308492206" lon="-1.2273529575565196"><ele>11.0</ele><time>2026-04-28T18:00:55Z</time></trkpt><trkpt lat="45.722573060308925" lon="-1.2276126992849612"><ele>9.5</ele><time>2026-04-28T18:00:56Z</time></trkpt><trkpt lat="45.72235302242524" lon="-1.2277850278801898"><ele>8.0</ele><time>2026-04-28T18:00:57Z</time></trkpt><trkpt lat="45.72216880897756" lon="-1.2279174437990708"><ele>8.0</ele><time>2026-04-28T18:00:58Z</time></trkpt><trkpt lat="45.72192917291607" lon="-1.227959639817299"><ele>8.0</ele><time>2026-04-28T18:00:59Z</time></trkpt><trkpt lat="45.72167641435447" lon="-1.2279247622176983"><ele>8.333333333333332</ele><time>2026-04-28T18:01:00Z</time></trkpt><trkpt lat="45.72146532146581" lon="-1.2279927847179988"><ele>8.666666666666666</ele><time>2026-04-28T18:01:01Z</time></trkpt><trkpt lat="45.72130693358129" lon="-1.2281641481026713"><ele>9.0</ele><time>2026-04-28T18:01:02Z</time></trkpt><trkpt lat="45.72116410917143" lon="-1.2283852995311615"><ele>9.5</ele><time>2026-04-28T18:01:03Z</time></trkpt><trkpt lat="45.72102775545533" lon="-1.2286422483713064"><ele>10.0</ele><time>2026-04-28T18:01:04Z</time></trkpt><trkpt lat="45.72087190700318" lon="-1.2289451134844835"><ele>9.5</ele><time>2026-04-28T18:01:05Z</time></trkpt><trkpt lat="45.7207214860993" lon="-1.2292841633361205"><ele>9.0</ele><time>2026-04-28T18:01:06Z</time></trkpt><trkpt lat="45.72057618479241" lon="-1.229564075239501"><ele>9.0</ele><time>2026-04-28T18:01:07Z</time></trkpt><trkpt lat="45.720394545312644" lon="-1.2297522810956567"><ele>9.0</ele><time>2026-04-28T18:01:08Z</time></trkpt><trkpt lat="45.720151757412125" lon="-1.2298657731622"><ele>8.5</ele><time>2026-04-28T18:01:09Z</time></trkpt><trkpt lat="45.71985851681988" lon="-1.2299092864104721"><ele>8.0</ele><time>2026-04-28T18:01:10Z</time></trkpt><trkpt lat="45.719537516886916" lon="-1.2299688665356427"><ele>8.0</ele><time>2026-04-28T18:01:11Z</time></trkpt><trkpt lat="45.719191932352885" lon="-1.2300464686688366"><ele>8.0</ele><time>2026-04-28T18:01:12Z</time></trkpt><trkpt lat="45.71882326830494" lon="-1.2301156683573486"><ele>7.5</ele><time>2026-04-28T18:01:13Z</time></trkpt><trkpt lat="45.71846341884909" lon="-1.2302133875670969"><ele>7.0</ele><time>2026-04-28T18:01:14Z</time></trkpt><trkpt lat="45.71809300674524" lon="-1.2302907429927221"><ele>8.0</ele><time>2026-04-28T18:01:15Z</time></trkpt><trkpt lat="45.71771537128239" lon="-1.2303685731767324"><ele>9.0</ele><time>2026-04-28T18:01:16Z</time></trkpt><trkpt lat="45.71732714430618" lon="-1.2304471374788988"><ele>9.0</ele><time>2026-04-28T18:01:17Z</time></trkpt><trkpt lat="45.71692719436604" lon="-1.230529157314668"><ele>9.0</ele><time>2026-04-28T18:01:18Z</time></trkpt><trkpt lat="45.71651811738422" lon="-1.2306137463974691"><ele>8.0</ele><time>2026-04-28T18:01:19Z</time></trkpt><trkpt lat="45.7160874119916" lon="-1.2306706757220978"><ele>7.0</ele><time>2026-04-28T18:01:20Z</time></trkpt><trkpt lat="45.71566252255371" lon="-1.2307710234487206"><ele>7.0</ele><time>2026-04-28T18:01:20.999Z</time></trkpt><trkpt lat="45.715239203108936" lon="-1.2308712428034987"><ele>7.0</ele><time>2026-04-28T18:01:21.999Z</time></trkpt><trkpt lat="45.714813721327545" lon="-1.230967370618263"><ele>8.0</ele><time>2026-04-28T18:01:22.999Z</time></trkpt><trkpt lat="45.71438067850306" lon="-1.2310667940644522"><ele>9.0</ele><time>2026-04-28T18:01:23.999Z</time></trkpt><trkpt lat="45.71393118421954" lon="-1.2311639421600824"><ele>9.0</ele><time>2026-04-28T18:01:24.999Z</time></trkpt><trkpt lat="45.7134782165528" lon="-1.2312541712225111"><ele>9.0</ele><time>2026-04-28T18:01:25.999Z</time></trkpt><trkpt lat="45.71301805456662" lon="-1.2313376363716528"><ele>6.0</ele><time>2026-04-28T18:01:26.999Z</time></trkpt><trkpt lat="45.71256729894278" lon="-1.2314213949421402"><ele>6.5</ele><time>2026-04-28T18:01:27.999Z</time></trkpt><trkpt lat="45.71216299660283" lon="-1.2315132207279231"><ele>7.0</ele><time>2026-04-28T18:01:28.999Z</time></trkpt><trkpt lat="45.71181384393301" lon="-1.2315836871078167"><ele>7.5</ele><time>2026-04-28T18:01:29.999Z</time></trkpt><trkpt lat="45.711521595023775" lon="-1.2316400370386642"><ele>8.0</ele><time>2026-04-28T18:01:30.999Z</time></trkpt><trkpt lat="45.7113001628392" lon="-1.2316919675708229"><ele>8.0</ele><time>2026-04-28T18:01:31.999Z</time></trkpt><trkpt lat="45.71111975447851" lon="-1.2317799135563727"><ele>8.0</ele><time>2026-04-28T18:01:32.999Z</time></trkpt><trkpt lat="45.71098328835722" lon="-1.2319396106691498"><ele>8.0</ele><time>2026-04-28T18:01:33.999Z</time></trkpt><trkpt lat="45.71083486580935" lon="-1.2321574269154154"><ele>7.5</ele><time>2026-04-28T18:01:34.999Z</time></trkpt><trkpt lat="45.71065021147409" lon="-1.2324194393314645"><ele>7.0</ele><time>2026-04-28T18:01:35.999Z</time></trkpt><trkpt lat="45.710495514106206" lon="-1.2326376174965292"><ele>7.0</ele><time>2026-04-28T18:01:36.999Z</time></trkpt><trkpt lat="45.71031481938441" lon="-1.2327529491448463"><ele>7.0</ele><time>2026-04-28T18:01:37.999Z</time></trkpt><trkpt lat="45.71008430189168" lon="-1.2327739423477413"><ele>7.0</ele><time>2026-04-28T18:01:38.999Z</time></trkpt><trkpt lat="45.7098026714771" lon="-1.2327327974796412"><ele>6.5</ele><time>2026-04-28T18:01:39.999Z</time></trkpt><trkpt lat="45.7094867352834" lon="-1.2327126271534494"><ele>6.0</ele><time>2026-04-28T18:01:40.999Z</time></trkpt><trkpt lat="45.7091526401105" lon="-1.232698005190196"><ele>6.0</ele><time>2026-04-28T18:01:41.999Z</time></trkpt><trkpt lat="45.708797339663086" lon="-1.232773835505019"><ele>6.0</ele><time>2026-04-28T18:01:42.999Z</time></trkpt><trkpt lat="45.70843776172255" lon="-1.2328603433748038"><ele>6.0</ele><time>2026-04-28T18:01:43.999Z</time></trkpt><trkpt lat="45.70806811146448" lon="-1.232950279667322"><ele>6.0</ele><time>2026-04-28T18:01:44.999Z</time></trkpt><trkpt lat="45.70767979930415" lon="-1.233024407871923"><ele>5.5</ele><time>2026-04-28T18:01:45.999Z</time></trkpt><trkpt lat="45.70732840480645" lon="-1.2331183213833794"><ele>5.0</ele><time>2026-04-28T18:01:46.999Z</time></trkpt><trkpt lat="45.707017963635074" lon="-1.2331940668224604"><ele>5.0</ele><time>2026-04-28T18:01:47.999Z</time></trkpt><trkpt lat="45.70676238814404" lon="-1.233247128859125"><ele>5.0</ele><time>2026-04-28T18:01:48.999Z</time></trkpt><trkpt lat="45.70651864623307" lon="-1.2332397164716908"><ele>6.0</ele><time>2026-04-28T18:01:49.999Z</time></trkpt><trkpt lat="45.70624925353323" lon="-1.233125906267126"><ele>7.0</ele><time>2026-04-28T18:01:50.999Z</time></trkpt><trkpt lat="45.70595703012583" lon="-1.2329269248298942"><ele>7.0</ele><time>2026-04-28T18:01:51.999Z</time></trkpt><trkpt lat="45.7056557751641" lon="-1.2327032826335682"><ele>7.0</ele><time>2026-04-28T18:01:52.999Z</time></trkpt><trkpt lat="45.705339435715985" lon="-1.2325030075379606"><ele>7.5</ele><time>2026-04-28T18:01:53.999Z</time></trkpt><trkpt lat="45.70500308214877" lon="-1.2322957151031473"><ele>8.0</ele><time>2026-04-28T18:01:54.999Z</time></trkpt><trkpt lat="45.70467786622795" lon="-1.2321149552304203"><ele>7.5</ele><time>2026-04-28T18:01:55.999Z</time></trkpt><trkpt lat="45.70440222611484" lon="-1.2319175182974846"><ele>7.0</ele><time>2026-04-28T18:01:56.999Z</time></trkpt><trkpt lat="45.704143401887556" lon="-1.2317561712641345"><ele>7.0</ele><time>2026-04-28T18:01:57.999Z</time></trkpt></trkseg></trk></gpx>